sensor_id;sensor_type;location;lat;lon;timestamp;pressure;altitude;pressure_sealevel;temperature;humidity
28683;BME280;15862;43.062;25.626;2022-10-17T00:00:05;101607.28;;;4.14;100.00
28683;BME280;15862;43.062;25.626;2022-10-17T00:02:31;101608.19;;;4.13;100.00
28683;BME280;15862;43.062;25.626;2022-10-17T00:04:56;101610.69;;;4.15;100.00
28683;BME280;15862;43.062;25.626;2022-10-17T00:07:21;101618.50;;;4.09;100.00
28683;BME280;15862;43.062;25.626;2022-10-17T00:09:47;101614.22;;;4.09;100.00
28683;BME280;15862;43.062;25.626;2022-10-17T00:12:12;101616.03;;;4.04;100.00
28683;BME280;15862;43.062;25.626;2022-10-17T00:14:37;101617.88;;;3.96;100.00
28683;BME280;15862;43.062;25.626;2022-10-17T00:17:03;101609.47;;;3.91;100.00
28683;BME280;15862;43.062;25.626;2022-10-17T00:19:28;101617.84;;;3.99;100.00
28683;BME280;15862;43.062;25.626;2022-10-17T00:21:54;101617.75;;;4.02;100.00
28683;BME280;15862;43.062;25.626;2022-10-17T00:24:19;101617.78;;;4.01;100.00
28683;BME280;15862;43.062;25.626;2022-10-17T00:26:44;101616.03;;;4.04;100.00
28683;BME280;15862;43.062;25.626;2022-10-17T00:29:10;101620.31;;;4.02;100.00
28683;BME280;15862;43.062;25.626;2022-10-17T00:31:35;101615.19;;;4.02;100.00
28683;BME280;15862;43.062;25.626;2022-10-17T00:34:00;101607.75;;;3.92;100.00
28683;BME280;15862;43.062;25.626;2022-10-17T00:36:26;101614.47;;;3.97;100.00
28683;BME280;15862;43.062;25.626;2022-10-17T00:38:55;101613.81;;;3.86;100.00
28683;BME280;15862;43.062;25.626;2022-10-17T00:41:22;101612.91;;;3.90;100.00
28683;BME280;15862;43.062;25.626;2022-10-17T00:43:51;101608.59;;;3.91;100.00
28683;BME280;15862;43.062;25.626;2022-10-17T00:46:17;101607.13;;;3.81;100.00
28683;BME280;15862;43.062;25.626;2022-10-17T00:48:43;101619.03;;;3.80;100.00
28683;BME280;15862;43.062;25.626;2022-10-17T00:51:08;101618.28;;;3.76;100.00
28683;BME280;15862;43.062;25.626;2022-10-17T00:53:33;101615.00;;;3.71;100.00
28683;BME280;15862;43.062;25.626;2022-10-17T00:56:00;101625.28;;;3.65;100.00
28683;BME280;15862;43.062;25.626;2022-10-17T00:58:25;101620.13;;;3.68;100.00
28683;BME280;15862;43.062;25.626;2022-10-17T01:00:51;101625.25;;;3.68;100.00
28683;BME280;15862;43.062;25.626;2022-10-17T01:03:16;101621.94;;;3.63;100.00
28683;BME280;15862;43.062;25.626;2022-10-17T01:05:41;101620.28;;;3.59;100.00
28683;BME280;15862;43.062;25.626;2022-10-17T01:08:07;101619.47;;;3.58;100.00
28683;BME280;15862;43.062;25.626;2022-10-17T01:11:16;101626.22;;;3.61;100.00
28683;BME280;15862;43.062;25.626;2022-10-17T01:13:23;101624.50;;;3.63;100.00
28683;BME280;15862;43.062;25.626;2022-10-17T01:15:54;101626.28;;;3.58;100.00
28683;BME280;15862;43.062;25.626;2022-10-17T01:18:26;101618.66;;;3.56;100.00
28683;BME280;15862;43.062;25.626;2022-10-17T01:31:28;101628.06;;;3.53;100.00
28683;BME280;15862;43.062;25.626;2022-10-17T01:39:30;101634.31;;;3.37;100.00
28683;BME280;15862;43.062;25.626;2022-10-17T01:42:02;101621.66;;;3.31;100.00
28683;BME280;15862;43.062;25.626;2022-10-17T01:47:01;101631.09;;;3.24;100.00
28683;BME280;15862;43.062;25.626;2022-10-17T01:49:28;101634.41;;;3.31;100.00
28683;BME280;15862;43.062;25.626;2022-10-17T01:51:57;101624.19;;;3.31;100.00
28683;BME280;15862;43.062;25.626;2022-10-17T01:54:31;101634.47;;;3.26;100.00
28683;BME280;15862;43.062;25.626;2022-10-17T01:57:00;101631.97;;;3.25;100.00
28683;BME280;15862;43.062;25.626;2022-10-17T01:59:35;101634.53;;;3.25;100.00
28683;BME280;15862;43.062;25.626;2022-10-17T02:02:02;101642.31;;;3.16;100.00
28683;BME280;15862;43.062;25.626;2022-10-17T02:04:29;101643.97;;;3.18;100.00
28683;BME280;15862;43.062;25.626;2022-10-17T02:06:54;101640.53;;;3.21;100.00
28683;BME280;15862;43.062;25.626;2022-10-17T02:09:21;101650.84;;;3.15;100.00
28683;BME280;15862;43.062;25.626;2022-10-17T02:11:49;101646.59;;;3.14;100.00
28683;BME280;15862;43.062;25.626;2022-10-17T02:24:46;101655.97;;;3.13;100.00
28683;BME280;15862;43.062;25.626;2022-10-17T02:29:49;101665.41;;;3.07;100.00
28683;BME280;15862;43.062;25.626;2022-10-17T02:32:29;101660.38;;;3.04;100.00
28683;BME280;15862;43.062;25.626;2022-10-17T02:34:57;101667.25;;;2.99;100.00
28683;BME280;15862;43.062;25.626;2022-10-17T02:37:26;101666.41;;;2.99;100.00
28683;BME280;15862;43.062;25.626;2022-10-17T02:39:53;101664.84;;;2.90;100.00
28683;BME280;15862;43.062;25.626;2022-10-17T02:42:19;101674.16;;;2.91;100.00
28683;BME280;15862;43.062;25.626;2022-10-17T02:44:45;101683.63;;;2.85;100.00
28683;BME280;15862;43.062;25.626;2022-10-17T02:47:27;101681.25;;;2.71;100.00
28683;BME280;15862;43.062;25.626;2022-10-17T02:49:56;101686.41;;;2.67;100.00
28683;BME280;15862;43.062;25.626;2022-10-17T02:54:58;101680.56;;;2.60;100.00
28683;BME280;15862;43.062;25.626;2022-10-17T02:59:50;101686.47;;;2.62;100.00
28683;BME280;15862;43.062;25.626;2022-10-17T03:02:15;101678.75;;;2.67;100.00
28683;BME280;15862;43.062;25.626;2022-10-17T03:04:41;101681.31;;;2.67;100.00
28683;BME280;15862;43.062;25.626;2022-10-17T03:07:07;101681.44;;;2.59;100.00
28683;BME280;15862;43.062;25.626;2022-10-17T03:09:32;101685.56;;;2.68;100.00
28683;BME280;15862;43.062;25.626;2022-10-17T03:11:57;101677.22;;;2.57;100.00
28683;BME280;15862;43.062;25.626;2022-10-17T03:14:22;101682.31;;;2.55;100.00
28683;BME280;15862;43.062;25.626;2022-10-17T03:16:48;101682.31;;;2.55;100.00
28683;BME280;15862;43.062;25.626;2022-10-17T03:19:13;101685.81;;;2.48;100.00
28683;BME280;15862;43.062;25.626;2022-10-17T03:21:38;101685.75;;;2.53;100.00
28683;BME280;15862;43.062;25.626;2022-10-17T03:24:04;101684.97;;;2.48;100.00
28683;BME280;15862;43.062;25.626;2022-10-17T03:26:29;101689.16;;;2.52;100.00
28683;BME280;15862;43.062;25.626;2022-10-17T03:28:54;101688.41;;;2.45;100.00
28683;BME280;15862;43.062;25.626;2022-10-17T03:31:20;101694.34;;;2.46;100.00
28683;BME280;15862;43.062;25.626;2022-10-17T03:33:46;101697.78;;;2.43;100.00
28683;BME280;15862;43.062;25.626;2022-10-17T03:36:12;101699.59;;;2.34;100.00
28683;BME280;15862;43.062;25.626;2022-10-17T03:38:38;101701.34;;;2.30;100.00
28683;BME280;15862;43.062;25.626;2022-10-17T03:41:04;101700.47;;;2.31;100.00
28683;BME280;15862;43.062;25.626;2022-10-17T03:43:29;101702.16;;;2.32;100.00
28683;BME280;15862;43.062;25.626;2022-10-17T03:45:58;101703.03;;;2.31;100.00
28683;BME280;15862;43.062;25.626;2022-10-17T03:48:24;101707.22;;;2.35;100.00
28683;BME280;15862;43.062;25.626;2022-10-17T03:50:49;101703.03;;;2.31;100.00
28683;BME280;15862;43.062;25.626;2022-10-17T03:53:14;101701.44;;;2.19;100.00
28683;BME280;15862;43.062;25.626;2022-10-17T03:55:40;101705.69;;;2.21;100.00
28683;BME280;15862;43.062;25.626;2022-10-17T03:58:05;101709.94;;;2.21;100.00
28683;BME280;15862;43.062;25.626;2022-10-17T04:00:30;101714.97;;;2.25;100.00
28683;BME280;15862;43.062;25.626;2022-10-17T04:02:56;101712.47;;;2.24;100.00
28683;BME280;15862;43.062;25.626;2022-10-17T04:05:22;101715.88;;;2.21;100.00
28683;BME280;15862;43.062;25.626;2022-10-17T04:07:47;101723.47;;;2.25;100.00
28683;BME280;15862;43.062;25.626;2022-10-17T04:10:12;101726.06;;;2.20;100.00
28683;BME280;15862;43.062;25.626;2022-10-17T04:12:37;101723.53;;;2.20;100.00
28683;BME280;15862;43.062;25.626;2022-10-17T04:15:03;101726.97;;;2.17;100.00
28683;BME280;15862;43.062;25.626;2022-10-17T04:17:29;101727.81;;;2.16;100.00
28683;BME280;15862;43.062;25.626;2022-10-17T04:19:54;101735.50;;;2.15;100.00
28683;BME280;15862;43.062;25.626;2022-10-17T04:22:19;101728.72;;;2.12;100.00
28683;BME280;15862;43.062;25.626;2022-10-17T04:24:45;101727.00;;;2.13;100.00
28683;BME280;15862;43.062;25.626;2022-10-17T04:27:10;101735.47;;;2.16;100.00
28683;BME280;15862;43.062;25.626;2022-10-17T04:29:35;101740.59;;;2.12;100.00
28683;BME280;15862;43.062;25.626;2022-10-17T04:32:00;101741.50;;;2.11;100.00
28683;BME280;15862;43.062;25.626;2022-10-17T04:34:26;101746.59;;;2.11;100.00
28683;BME280;15862;43.062;25.626;2022-10-17T04:36:51;101729.75;;;1.95;100.00
28683;BME280;15862;43.062;25.626;2022-10-17T04:39:16;101744.91;;;2.07;100.00
28683;BME280;15862;43.062;25.626;2022-10-17T04:41:42;101747.38;;;2.13;100.00
28683;BME280;15862;43.062;25.626;2022-10-17T04:44:08;101752.56;;;2.07;100.00
28683;BME280;15862;43.062;25.626;2022-10-17T04:46:34;101757.63;;;2.10;100.00
28683;BME280;15862;43.062;25.626;2022-10-17T04:48:59;101755.81;;;2.19;100.00
28683;BME280;15862;43.062;25.626;2022-10-17T04:51:25;101758.34;;;2.21;100.00
28683;BME280;15862;43.062;25.626;2022-10-17T04:53:50;101755.81;;;2.19;100.00
28683;BME280;15862;43.062;25.626;2022-10-17T04:56:16;101771.88;;;2.25;100.00
28683;BME280;15862;43.062;25.626;2022-10-17T04:58:42;101768.47;;;2.29;100.00
28683;BME280;15862;43.062;25.626;2022-10-17T05:01:09;101776.91;;;2.34;100.00
28683;BME280;15862;43.062;25.626;2022-10-17T05:03:35;101773.47;;;2.38;100.00
28683;BME280;15862;43.062;25.626;2022-10-17T05:06:08;101780.16;;;2.48;100.00
28683;BME280;15862;43.062;25.626;2022-10-17T05:08:34;101778.34;;;2.59;100.00
28683;BME280;15862;43.062;25.626;2022-10-17T05:10:59;101779.16;;;2.63;100.00
28683;BME280;15862;43.062;25.626;2022-10-17T05:13:25;101780.69;;;2.76;100.00
28683;BME280;15862;43.062;25.626;2022-10-17T05:15:50;101785.56;;;2.92;100.00
28683;BME280;15862;43.062;25.626;2022-10-17T05:18:15;101793.13;;;3.01;100.00
28683;BME280;15862;43.062;25.626;2022-10-17T05:20:40;101790.41;;;3.13;100.00
28683;BME280;15862;43.062;25.626;2022-10-17T05:23:06;101803.03;;;3.25;100.00
28683;BME280;15862;43.062;25.626;2022-10-17T05:25:31;101798.44;;;3.48;100.00
28683;BME280;15862;43.062;25.626;2022-10-17T05:27:56;101800.81;;;3.60;100.00
28683;BME280;15862;43.062;25.626;2022-10-17T05:30:21;101787.97;;;3.64;100.00
28683;BME280;15862;43.062;25.626;2022-10-17T05:32:47;101783.84;;;3.56;100.00
28683;BME280;15862;43.062;25.626;2022-10-17T05:35:12;101789.72;;;3.61;100.00
28683;BME280;15862;43.062;25.626;2022-10-17T05:37:38;101795.69;;;3.60;100.00
28683;BME280;15862;43.062;25.626;2022-10-17T05:40:03;101798.88;;;3.74;100.00
28683;BME280;15862;43.062;25.626;2022-10-17T05:42:28;101794.47;;;3.84;100.00
28683;BME280;15862;43.062;25.626;2022-10-17T05:44:54;101798.84;;;4.26;100.00
28683;BME280;15862;43.062;25.626;2022-10-17T05:47:19;101804.16;;;5.42;100.00
28683;BME280;15862;43.062;25.626;2022-10-17T05:49:44;101788.53;;;6.84;100.00
28683;BME280;15862;43.062;25.626;2022-10-17T05:52:09;101796.75;;;8.31;100.00
28683;BME280;15862;43.062;25.626;2022-10-17T05:54:35;101781.25;;;9.68;100.00
28683;BME280;15862;43.062;25.626;2022-10-17T05:57:00;101771.53;;;11.12;100.00
28683;BME280;15862;43.062;25.626;2022-10-17T05:59:26;101769.78;;;12.18;100.00
28683;BME280;15862;43.062;25.626;2022-10-17T06:01:51;101770.38;;;13.35;92.76
28683;BME280;15862;43.062;25.626;2022-10-17T06:04:17;101766.03;;;14.10;80.11
28683;BME280;15862;43.062;25.626;2022-10-17T06:06:42;101770.88;;;15.01;65.51
28683;BME280;15862;43.062;25.626;2022-10-17T06:09:08;101773.28;;;15.58;55.11
28683;BME280;15862;43.062;25.626;2022-10-17T06:11:33;101776.97;;;16.06;52.38
28683;BME280;15862;43.062;25.626;2022-10-17T06:13:59;101777.84;;;16.94;48.70
28683;BME280;15862;43.062;25.626;2022-10-17T06:16:24;101771.47;;;17.10;48.27
28683;BME280;15862;43.062;25.626;2022-10-17T06:18:50;101768.81;;;17.35;46.73
28683;BME280;15862;43.062;25.626;2022-10-17T06:21:16;101760.34;;;17.32;46.45
28683;BME280;15862;43.062;25.626;2022-10-17T06:23:43;101767.25;;;18.37;43.41
28683;BME280;15862;43.062;25.626;2022-10-17T06:26:08;101771.75;;;18.35;42.88
28683;BME280;15862;43.062;25.626;2022-10-17T06:28:34;101778.28;;;18.30;43.23
28683;BME280;15862;43.062;25.626;2022-10-17T06:31:03;101775.56;;;18.42;42.80
28683;BME280;15862;43.062;25.626;2022-10-17T06:33:29;101782.72;;;18.84;42.09
28683;BME280;15862;43.062;25.626;2022-10-17T06:35:54;101784.63;;;19.47;40.56
28683;BME280;15862;43.062;25.626;2022-10-17T06:38:20;101786.16;;;19.39;40.94
28683;BME280;15862;43.062;25.626;2022-10-17T06:40:46;101778.25;;;20.03;39.69
28683;BME280;15862;43.062;25.626;2022-10-17T06:43:11;101784.25;;;20.76;38.10
28683;BME280;15862;43.062;25.626;2022-10-17T06:45:37;101789.09;;;19.98;39.21
28683;BME280;15862;43.062;25.626;2022-10-17T06:48:03;101791.50;;;20.42;38.98
28683;BME280;15862;43.062;25.626;2022-10-17T06:50:28;101796.72;;;21.22;37.83
28683;BME280;15862;43.062;25.626;2022-10-17T06:52:53;101797.91;;;20.99;37.98
28683;BME280;15862;43.062;25.626;2022-10-17T06:55:19;101792.75;;;21.37;37.51
28683;BME280;15862;43.062;25.626;2022-10-17T06:57:44;101793.69;;;22.23;36.21
28683;BME280;15862;43.062;25.626;2022-10-17T07:00:09;101785.38;;;23.18;34.63
28683;BME280;15862;43.062;25.626;2022-10-17T07:02:35;101780.09;;;22.36;36.27
28683;BME280;15862;43.062;25.626;2022-10-17T07:05:00;101784.47;;;22.64;35.70
28683;BME280;15862;43.062;25.626;2022-10-17T07:07:26;101785.19;;;23.74;33.56
28683;BME280;15862;43.062;25.626;2022-10-17T07:09:54;101779.84;;;23.39;34.29
28683;BME280;15862;43.062;25.626;2022-10-17T07:12:19;101780.31;;;23.52;34.09
28683;BME280;15862;43.062;25.626;2022-10-17T07:14:44;101783.13;;;24.02;33.59
28683;BME280;15862;43.062;25.626;2022-10-17T07:17:11;101782.88;;;24.13;33.10
28683;BME280;15862;43.062;25.626;2022-10-17T07:19:37;101777.72;;;24.80;32.39
28683;BME280;15862;43.062;25.626;2022-10-17T07:22:02;101779.34;;;24.73;32.44
28683;BME280;15862;43.062;25.626;2022-10-17T07:24:28;101783.31;;;25.36;31.88
28683;BME280;15862;43.062;25.626;2022-10-17T07:26:53;101773.09;;;25.64;31.62
28683;BME280;15862;43.062;25.626;2022-10-17T07:29:18;101776.28;;;25.84;31.05
28683;BME280;15862;43.062;25.626;2022-10-17T07:31:44;101782.91;;;25.80;31.19
28683;BME280;15862;43.062;25.626;2022-10-17T07:34:12;101783.88;;;26.50;30.73
28683;BME280;15862;43.062;25.626;2022-10-17T07:36:38;101776.44;;;25.82;30.81
28683;BME280;15862;43.062;25.626;2022-10-17T07:39:03;101777.75;;;26.58;30.06
28683;BME280;15862;43.062;25.626;2022-10-17T07:41:28;101780.28;;;26.04;31.28
28683;BME280;15862;43.062;25.626;2022-10-17T07:43:54;101776.34;;;25.35;31.69
28683;BME280;15862;43.062;25.626;2022-10-17T07:46:19;101779.34;;;27.29;29.75
28683;BME280;15862;43.062;25.626;2022-10-17T07:48:45;101784.38;;;28.36;28.18
28683;BME280;15862;43.062;25.626;2022-10-17T07:51:10;101779.72;;;27.18;29.44
28683;BME280;15862;43.062;25.626;2022-10-17T07:53:36;101772.00;;;27.31;29.30
28683;BME280;15862;43.062;25.626;2022-10-17T07:56:06;101775.81;;;27.89;28.91
28683;BME280;15862;43.062;25.626;2022-10-17T07:58:32;101771.66;;;28.09;28.19
28683;BME280;15862;43.062;25.626;2022-10-17T08:01:05;101778.81;;;29.17;27.57
28683;BME280;15862;43.062;25.626;2022-10-17T08:03:30;101774.78;;;29.21;27.46
28683;BME280;15862;43.062;25.626;2022-10-17T08:05:57;101776.00;;;29.75;26.70
28683;BME280;15862;43.062;25.626;2022-10-17T08:08:22;101771.66;;;30.36;25.90
28683;BME280;15862;43.062;25.626;2022-10-17T08:10:48;101769.59;;;29.90;26.36
28683;BME280;15862;43.062;25.626;2022-10-17T08:13:13;101754.75;;;29.40;26.99
28683;BME280;15862;43.062;25.626;2022-10-17T08:15:38;101759.75;;;29.91;26.16
28683;BME280;15862;43.062;25.626;2022-10-17T08:18:03;101758.06;;;30.99;25.30
28683;BME280;15862;43.062;25.626;2022-10-17T08:20:29;101753.72;;;31.45;24.84
28683;BME280;15862;43.062;25.626;2022-10-17T08:22:54;101757.19;;;31.32;24.82
28683;BME280;15862;43.062;25.626;2022-10-17T08:25:20;101751.56;;;30.74;25.27
28683;BME280;15862;43.062;25.626;2022-10-17T08:27:45;101751.56;;;30.74;25.55
28683;BME280;15862;43.062;25.626;2022-10-17T08:30:10;101751.13;;;29.47;26.64
28683;BME280;15862;43.062;25.626;2022-10-17T08:32:36;101740.81;;;27.33;28.60
28683;BME280;15862;43.062;25.626;2022-10-17T08:35:01;101740.75;;;25.29;30.18
28683;BME280;15862;43.062;25.626;2022-10-17T08:37:26;101744.03;;;24.82;30.12
28683;BME280;15862;43.062;25.626;2022-10-17T08:39:51;101736.31;;;24.12;29.13
28683;BME280;15862;43.062;25.626;2022-10-17T08:47:26;101729.56;;;28.12;26.72
28683;BME280;15862;43.062;25.626;2022-10-17T08:49:54;101732.91;;;29.50;25.48
28683;BME280;15862;43.062;25.626;2022-10-17T08:55:15;101727.47;;;32.06;22.52
28683;BME280;15862;43.062;25.626;2022-10-17T08:57:41;101738.94;;;33.22;22.04
28683;BME280;15862;43.062;25.626;2022-10-17T09:00:25;101735.63;;;33.63;21.68
28683;BME280;15862;43.062;25.626;2022-10-17T09:18:23;101717.31;;;34.03;22.05
28683;BME280;15862;43.062;25.626;2022-10-17T09:20:51;101722.25;;;34.48;21.91
28683;BME280;15862;43.062;25.626;2022-10-17T09:23:40;101719.41;;;34.25;21.69
28683;BME280;15862;43.062;25.626;2022-10-17T09:26:07;101718.63;;;34.60;21.22
28683;BME280;15862;43.062;25.626;2022-10-17T09:28:44;101701.78;;;34.11;21.72
28683;BME280;15862;43.062;25.626;2022-10-17T09:33:42;101708.06;;;34.41;21.53
28683;BME280;15862;43.062;25.626;2022-10-17T09:36:18;101713.09;;;32.90;23.11
28683;BME280;15862;43.062;25.626;2022-10-17T09:38:46;101709.16;;;33.91;22.07
28683;BME280;15862;43.062;25.626;2022-10-17T09:41:14;101708.38;;;32.85;23.03
28683;BME280;15862;43.062;25.626;2022-10-17T09:43:40;101693.84;;;32.62;23.25
28683;BME280;15862;43.062;25.626;2022-10-17T09:46:07;101703.81;;;32.86;23.04
28683;BME280;15862;43.062;25.626;2022-10-17T09:48:37;101704.78;;;31.38;24.47
28683;BME280;15862;43.062;25.626;2022-10-17T09:51:04;101702.78;;;31.53;24.46
28683;BME280;15862;43.062;25.626;2022-10-17T09:53:32;101695.16;;;32.01;24.16
28683;BME280;15862;43.062;25.626;2022-10-17T09:56:00;101690.03;;;32.13;24.30
28683;BME280;15862;43.062;25.626;2022-10-17T09:58:59;101694.06;;;31.31;24.85
28683;BME280;15862;43.062;25.626;2022-10-17T10:03:47;101684.81;;;33.07;23.36
28683;BME280;15862;43.062;25.626;2022-10-17T10:11:13;101679.00;;;33.71;22.51
28683;BME280;15862;43.062;25.626;2022-10-17T10:13:38;101680.44;;;33.92;22.79
28683;BME280;15862;43.062;25.626;2022-10-17T10:16:15;101676.72;;;33.44;23.01
28683;BME280;15862;43.062;25.626;2022-10-17T10:18:41;101673.44;;;32.61;24.01
28683;BME280;15862;43.062;25.626;2022-10-17T10:23:32;101682.09;;;32.63;23.93
28683;BME280;15862;43.062;25.626;2022-10-17T10:26:02;101677.56;;;33.07;23.69
28683;BME280;15862;43.062;25.626;2022-10-17T10:28:32;101673.63;;;33.71;22.72
28683;BME280;15862;43.062;25.626;2022-10-17T10:30:59;101672.69;;;34.26;22.84
28683;BME280;15862;43.062;25.626;2022-10-17T10:33:26;101671.81;;;34.68;22.03
28683;BME280;15862;43.062;25.626;2022-10-17T10:35:54;101671.38;;;33.93;22.90
28683;BME280;15862;43.062;25.626;2022-10-17T10:38:20;101673.47;;;34.51;22.76
28683;BME280;15862;43.062;25.626;2022-10-17T10:40:46;101670.69;;;35.22;21.45
28683;BME280;15862;43.062;25.626;2022-10-17T10:43:20;101664.25;;;35.76;22.04
28683;BME280;15862;43.062;25.626;2022-10-17T10:45:47;101664.59;;;35.79;21.80
28683;BME280;15862;43.062;25.626;2022-10-17T10:50:45;101663.38;;;36.55;20.88
28683;BME280;15862;43.062;25.626;2022-10-17T10:58:19;101649.16;;;35.22;22.13
28683;BME280;15862;43.062;25.626;2022-10-17T11:00:47;101650.09;;;35.16;21.95
28683;BME280;15862;43.062;25.626;2022-10-17T11:03:19;101652.97;;;33.17;23.31
28683;BME280;15862;43.062;25.626;2022-10-17T11:05:55;101646.19;;;32.70;23.86
28683;BME280;15862;43.062;25.626;2022-10-17T11:13:42;101633.47;;;32.60;24.18
28683;BME280;15862;43.062;25.626;2022-10-17T11:16:32;101626.66;;;31.68;25.05
28683;BME280;15862;43.062;25.626;2022-10-17T11:24:26;101617.22;;;32.48;24.38
28683;BME280;15862;43.062;25.626;2022-10-17T11:26:59;101622.44;;;33.18;24.40
28683;BME280;15862;43.062;25.626;2022-10-17T11:29:27;101614.06;;;32.14;24.74
28683;BME280;15862;43.062;25.626;2022-10-17T11:31:52;101609.78;;;33.31;23.21
28683;BME280;15862;43.062;25.626;2022-10-17T11:34:28;101609.16;;;33.78;23.37
28683;BME280;15862;43.062;25.626;2022-10-17T11:36:57;101607.81;;;34.29;23.11
28683;BME280;15862;43.062;25.626;2022-10-17T11:39:40;101608.53;;;34.18;22.93
28683;BME280;15862;43.062;25.626;2022-10-17T11:42:09;101602.94;;;34.20;22.68
28683;BME280;15862;43.062;25.626;2022-10-17T11:44:38;101599.09;;;33.49;22.77
28683;BME280;15862;43.062;25.626;2022-10-17T11:47:05;101602.56;;;34.16;22.25
28683;BME280;15862;43.062;25.626;2022-10-17T11:49:35;101601.69;;;34.22;22.43
28683;BME280;15862;43.062;25.626;2022-10-17T11:52:21;101600.25;;;35.03;22.28
28683;BME280;15862;43.062;25.626;2022-10-17T11:54:53;101585.22;;;34.19;22.54
28683;BME280;15862;43.062;25.626;2022-10-17T11:59:47;101578.47;;;33.49;22.86
28683;BME280;15862;43.062;25.626;2022-10-17T12:02:52;101582.41;;;33.89;22.89
28683;BME280;15862;43.062;25.626;2022-10-17T12:05:15;101579.47;;;34.15;22.67
28683;BME280;15862;43.062;25.626;2022-10-17T12:10:19;101581.13;;;32.07;24.60
28683;BME280;15862;43.062;25.626;2022-10-17T12:12:48;101576.41;;;32.53;23.96
28683;BME280;15862;43.062;25.626;2022-10-17T12:22:52;101569.31;;;33.02;23.54
28683;BME280;15862;43.062;25.626;2022-10-17T12:25:22;101574.97;;;32.63;23.71
28683;BME280;15862;43.062;25.626;2022-10-17T12:27:48;101574.38;;;32.48;23.86
28683;BME280;15862;43.062;25.626;2022-10-17T12:30:16;101571.34;;;33.13;22.66
28683;BME280;15862;43.062;25.626;2022-10-17T12:32:55;101565.75;;;33.39;23.08
28683;BME280;15862;43.062;25.626;2022-10-17T12:35:22;101562.50;;;32.75;23.18
28683;BME280;15862;43.062;25.626;2022-10-17T12:42:57;101565.28;;;31.99;24.09
28683;BME280;15862;43.062;25.626;2022-10-17T12:48:09;101559.59;;;31.24;24.64
28683;BME280;15862;43.062;25.626;2022-10-17T12:53:18;101562.88;;;31.20;25.05
28683;BME280;15862;43.062;25.626;2022-10-17T12:55:46;101564.34;;;29.76;26.56
28683;BME280;15862;43.062;25.626;2022-10-17T12:58:12;101556.06;;;29.16;26.82
28683;BME280;15862;43.062;25.626;2022-10-17T13:05:34;101569.91;;;27.77;28.46
28683;BME280;15862;43.062;25.626;2022-10-17T13:08:01;101567.41;;;26.80;29.47
28683;BME280;15862;43.062;25.626;2022-10-17T13:10:28;101554.91;;;25.81;31.21
28683;BME280;15862;43.062;25.626;2022-10-17T13:13:14;101561.50;;;23.91;33.36
28683;BME280;15862;43.062;25.626;2022-10-17T13:15:44;101566.03;;;22.34;36.41
28683;BME280;15862;43.062;25.626;2022-10-17T13:18:12;101562.16;;;21.28;38.23
28683;BME280;15862;43.062;25.626;2022-10-17T13:20:40;101557.72;;;20.81;39.46
28683;BME280;15862;43.062;25.626;2022-10-17T13:23:19;101555.38;;;20.30;40.18
28683;BME280;15862;43.062;25.626;2022-10-17T13:25:45;101563.28;;;20.00;40.66
28683;BME280;15862;43.062;25.626;2022-10-17T13:28:11;101559.28;;;19.76;41.70
28683;BME280;15862;43.062;25.626;2022-10-17T13:30:37;101568.22;;;19.73;42.34
28683;BME280;15862;43.062;25.626;2022-10-17T13:33:03;101563.94;;;19.72;42.53
28683;BME280;15862;43.062;25.626;2022-10-17T13:35:40;101563.56;;;19.56;42.98
28683;BME280;15862;43.062;25.626;2022-10-17T13:38:05;101575.28;;;19.52;42.94
28683;BME280;15862;43.062;25.626;2022-10-17T13:40:37;101564.09;;;19.50;43.87
28683;BME280;15862;43.062;25.626;2022-10-17T13:43:03;101570.47;;;19.57;44.19
28683;BME280;15862;43.062;25.626;2022-10-17T13:45:37;101567.09;;;19.46;43.99
28683;BME280;15862;43.062;25.626;2022-10-17T13:48:03;101574.66;;;19.39;44.21
28683;BME280;15862;43.062;25.626;2022-10-17T13:50:36;101572.59;;;19.22;43.84
28683;BME280;15862;43.062;25.626;2022-10-17T13:55:36;101573.75;;;19.29;44.69
28683;BME280;15862;43.062;25.626;2022-10-17T13:58:08;101562.31;;;19.30;44.64
28683;BME280;15862;43.062;25.626;2022-10-17T14:00:34;101573.03;;;19.27;44.41
28683;BME280;15862;43.062;25.626;2022-10-17T14:02:59;101564.72;;;19.22;44.99
28683;BME280;15862;43.062;25.626;2022-10-17T14:05:24;101564.16;;;19.19;44.32
28683;BME280;15862;43.062;25.626;2022-10-17T14:07:51;101562.03;;;19.13;44.70
28683;BME280;15862;43.062;25.626;2022-10-17T14:10:24;101562.38;;;19.09;45.28
28683;BME280;15862;43.062;25.626;2022-10-17T14:12:51;101567.75;;;19.07;45.38
28683;BME280;15862;43.062;25.626;2022-10-17T14:15:16;101563.63;;;18.94;45.37
28683;BME280;15862;43.062;25.626;2022-10-17T14:17:42;101559.13;;;18.96;45.58
28683;BME280;15862;43.062;25.626;2022-10-17T14:20:16;101560.31;;;18.92;46.75
28683;BME280;15862;43.062;25.626;2022-10-17T14:22:42;101561.31;;;18.80;45.64
28683;BME280;15862;43.062;25.626;2022-10-17T14:27:53;101564.78;;;18.69;46.73
28683;BME280;15862;43.062;25.626;2022-10-17T14:30:31;101561.59;;;18.55;46.29
28683;BME280;15862;43.062;25.626;2022-10-17T14:32:57;101563.41;;;18.54;47.11
28683;BME280;15862;43.062;25.626;2022-10-17T14:35:24;101565.22;;;18.43;47.36
28683;BME280;15862;43.062;25.626;2022-10-17T14:37:50;101562.81;;;18.40;46.80
28683;BME280;15862;43.062;25.626;2022-10-17T14:40:20;101569.50;;;18.33;47.35
28683;BME280;15862;43.062;25.626;2022-10-17T14:42:49;101571.88;;;18.36;47.68
28683;BME280;15862;43.062;25.626;2022-10-17T14:45:21;101572.81;;;18.24;49.58